sensor_id;sensor_type;location;lat;lon;timestamp;pressure;altitude;pressure_sealevel;temperature;humidity
40946;BME280;55635;50.264;11.918;2023-04-23T00:02:09;94912.00;;;16.32;65.09
40946;BME280;55635;50.264;11.918;2023-04-23T00:04:56;94917.34;;;15.93;66.50
40946;BME280;55635;50.264;11.918;2023-04-23T00:07:42;94913.38;;;15.95;66.93
40946;BME280;55635;50.264;11.918;2023-04-23T00:10:23;94912.31;;;15.85;67.11
40946;BME280;55635;50.264;11.918;2023-04-23T00:13:06;94901.19;;;15.64;68.78
40946;BME280;55635;50.264;11.918;2023-04-23T00:15:47;94908.41;;;15.52;69.21
40946;BME280;55635;50.264;11.918;2023-04-23T00:18:28;94918.13;;;16.05;66.66
40946;BME280;55635;50.264;11.918;2023-04-23T00:21:09;94913.03;;;16.31;66.39
40946;BME280;55635;50.264;11.918;2023-04-23T00:23:50;94902.97;;;16.50;65.04
40946;BME280;55635;50.264;11.918;2023-04-23T00:26:31;94902.09;;;16.33;65.18
40946;BME280;55635;50.264;11.918;2023-04-23T00:29:14;94895.13;;;16.32;65.38
40946;BME280;55635;50.264;11.918;2023-04-23T00:31:55;94888.81;;;16.38;65.48
40946;BME280;55635;50.264;11.918;2023-04-23T00:34:36;94877.22;;;16.32;64.93
40946;BME280;55635;50.264;11.918;2023-04-23T00:37:17;94861.81;;;16.40;63.95
40946;BME280;55635;50.264;11.918;2023-04-23T00:39:58;94867.44;;;16.66;62.84
40946;BME280;55635;50.264;11.918;2023-04-23T00:42:39;94856.31;;;16.74;63.24
40946;BME280;55635;50.264;11.918;2023-04-23T00:45:21;94852.94;;;16.51;64.37
40946;BME280;55635;50.264;11.918;2023-04-23T00:48:26;94845.75;;;16.40;65.51
40946;BME280;55635;50.264;11.918;2023-04-23T00:51:10;94836.59;;;16.36;65.52
40946;BME280;55635;50.264;11.918;2023-04-23T00:53:51;94841.06;;;16.47;65.58
40946;BME280;55635;50.264;11.918;2023-04-23T00:56:35;94822.34;;;16.18;66.17
40946;BME280;55635;50.264;11.918;2023-04-23T00:59:15;94842.38;;;16.44;65.99
40946;BME280;55635;50.264;11.918;2023-04-23T01:01:57;94835.47;;;16.48;65.84
40946;BME280;55635;50.264;11.918;2023-04-23T01:04:41;94842.22;;;16.51;65.27
40946;BME280;55635;50.264;11.918;2023-04-23T01:07:23;94842.81;;;16.24;65.94
40946;BME280;55635;50.264;11.918;2023-04-23T01:10:05;94826.66;;;16.19;65.73
40946;BME280;55635;50.264;11.918;2023-04-23T01:12:49;94839.97;;;16.14;65.74
40946;BME280;55635;50.264;11.918;2023-04-23T01:15:34;94841.03;;;16.02;66.20
40946;BME280;55635;50.264;11.918;2023-04-23T01:18:15;94849.94;;;15.79;66.97
40946;BME280;55635;50.264;11.918;2023-04-23T01:20:58;94847.81;;;15.81;67.49
40946;BME280;55635;50.264;11.918;2023-04-23T01:23:39;94847.59;;;15.83;66.86
40946;BME280;55635;50.264;11.918;2023-04-23T01:26:21;94845.78;;;15.60;67.18
40946;BME280;55635;50.264;11.918;2023-04-23T01:29:03;94851.34;;;15.35;68.44
40946;BME280;55635;50.264;11.918;2023-04-23T01:31:45;94863.19;;;15.27;69.14
40946;BME280;55635;50.264;11.918;2023-04-23T01:34:26;94866.44;;;15.18;68.54
40946;BME280;55635;50.264;11.918;2023-04-23T01:37:08;94872.81;;;15.17;68.92
40946;BME280;55635;50.264;11.918;2023-04-23T01:39:50;94866.56;;;15.23;68.91
40946;BME280;55635;50.264;11.918;2023-04-23T01:43:16;94871.09;;;15.34;69.02
40946;BME280;55635;50.264;11.918;2023-04-23T01:45:39;94870.28;;;15.57;67.77
40946;BME280;55635;50.264;11.918;2023-04-23T01:48:20;94873.91;;;15.62;67.39
40946;BME280;55635;50.264;11.918;2023-04-23T01:51:02;94868.75;;;15.72;66.54
40946;BME280;55635;50.264;11.918;2023-04-23T01:53:43;94855.44;;;15.49;67.83
40946;BME280;55635;50.264;11.918;2023-04-23T01:56:29;94855.28;;;15.33;68.26
40946;BME280;55635;50.264;11.918;2023-04-23T01:59:10;94863.41;;;15.26;69.14
40946;BME280;55635;50.264;11.918;2023-04-23T02:01:52;94865.41;;;15.42;68.76
40946;BME280;55635;50.264;11.918;2023-04-23T02:04:33;94863.53;;;15.43;68.21
40946;BME280;55635;50.264;11.918;2023-04-23T02:07:14;94855.53;;;15.43;67.22
40946;BME280;55635;50.264;11.918;2023-04-23T02:09:55;94859.28;;;15.53;66.57
40946;BME280;55635;50.264;11.918;2023-04-23T02:12:37;94845.66;;;15.43;67.09
40946;BME280;55635;50.264;11.918;2023-04-23T02:15:18;94860.16;;;15.36;67.52
40946;BME280;55635;50.264;11.918;2023-04-23T02:18:00;94856.94;;;15.34;67.41
40946;BME280;55635;50.264;11.918;2023-04-23T02:20:41;94872.13;;;15.33;67.73
40946;BME280;55635;50.264;11.918;2023-04-23T02:23:23;94863.44;;;15.38;67.43
40946;BME280;55635;50.264;11.918;2023-04-23T02:26:04;94867.84;;;15.32;68.04
40946;BME280;55635;50.264;11.918;2023-04-23T02:28:45;94867.94;;;15.14;68.83
40946;BME280;55635;50.264;11.918;2023-04-23T02:31:26;94856.09;;;14.98;69.18
40946;BME280;55635;50.264;11.918;2023-04-23T02:34:08;94862.50;;;14.97;69.42
40946;BME280;55635;50.264;11.918;2023-04-23T02:36:50;94864.50;;;14.49;71.42
40946;BME280;55635;50.264;11.918;2023-04-23T02:39:33;94876.91;;;14.55;71.03
40946;BME280;55635;50.264;11.918;2023-04-23T02:42:14;94872.78;;;14.70;70.93
40946;BME280;55635;50.264;11.918;2023-04-23T02:44:55;94872.56;;;14.84;70.06
40946;BME280;55635;50.264;11.918;2023-04-23T02:47:37;94868.84;;;14.85;70.05
40946;BME280;55635;50.264;11.918;2023-04-23T02:50:18;94867.47;;;14.94;69.52
40946;BME280;55635;50.264;11.918;2023-04-23T02:52:59;94860.03;;;14.96;68.95
40946;BME280;55635;50.264;11.918;2023-04-23T02:55:42;94865.72;;;14.88;69.63
40946;BME280;55635;50.264;11.918;2023-04-23T02:58:23;94854.03;;;14.89;68.88
40946;BME280;55635;50.264;11.918;2023-04-23T03:01:09;94861.88;;;14.84;69.67
40946;BME280;55635;50.264;11.918;2023-04-23T03:03:50;94863.25;;;14.75;69.75
40946;BME280;55635;50.264;11.918;2023-04-23T03:06:34;94864.53;;;14.72;69.99
40946;BME280;55635;50.264;11.918;2023-04-23T03:09:15;94871.41;;;14.80;69.23
40946;BME280;55635;50.264;11.918;2023-04-23T03:11:56;94875.56;;;14.76;69.07
40946;BME280;55635;50.264;11.918;2023-04-23T03:14:37;94860.22;;;14.71;68.83
40946;BME280;55635;50.264;11.918;2023-04-23T03:17:18;94878.25;;;14.87;68.66
40946;BME280;55635;50.264;11.918;2023-04-23T03:19:59;94870.94;;;14.83;68.62
40946;BME280;55635;50.264;11.918;2023-04-23T03:22:40;94875.63;;;14.57;69.13
40946;BME280;55635;50.264;11.918;2023-04-23T03:25:22;94877.91;;;14.42;70.25
40946;BME280;55635;50.264;11.918;2023-04-23T03:28:05;94871.97;;;14.40;71.01
40946;BME280;55635;50.264;11.918;2023-04-23T03:31:11;94874.78;;;14.45;70.54
40946;BME280;55635;50.264;11.918;2023-04-23T03:33:52;94873.06;;;14.51;69.99
40946;BME280;55635;50.264;11.918;2023-04-23T03:36:40;94875.16;;;14.49;70.44
40946;BME280;55635;50.264;11.918;2023-04-23T03:39:21;94879.13;;;14.58;69.10
40946;BME280;55635;50.264;11.918;2023-04-23T03:42:07;94883.97;;;14.49;70.30
40946;BME280;55635;50.264;11.918;2023-04-23T03:44:49;94878.13;;;14.41;70.75
40946;BME280;55635;50.264;11.918;2023-04-23T03:47:30;94870.38;;;14.39;70.24
40946;BME280;55635;50.264;11.918;2023-04-23T03:50:12;94862.03;;;14.47;70.02
40946;BME280;55635;50.264;11.918;2023-04-23T03:52:54;94873.44;;;14.54;69.71
40946;BME280;55635;50.264;11.918;2023-04-23T03:55:55;94878.03;;;14.47;70.34
40946;BME280;55635;50.264;11.918;2023-04-23T03:58:36;94882.19;;;14.43;70.36
40946;BME280;55635;50.264;11.918;2023-04-23T04:01:18;94874.78;;;14.45;69.74
40946;BME280;55635;50.264;11.918;2023-04-23T04:03:58;94870.50;;;14.26;70.84
40946;BME280;55635;50.264;11.918;2023-04-23T04:06:40;94873.31;;;14.31;70.69
40946;BME280;55635;50.264;11.918;2023-04-23T04:09:22;94881.72;;;14.46;70.36
40946;BME280;55635;50.264;11.918;2023-04-23T04:12:06;94887.69;;;14.48;70.00
40946;BME280;55635;50.264;11.918;2023-04-23T04:14:47;94890.06;;;14.20;71.24
40946;BME280;55635;50.264;11.918;2023-04-23T04:17:28;94892.03;;;13.95;73.22
40946;BME280;55635;50.264;11.918;2023-04-23T04:20:09;94900.34;;;13.87;74.75
40946;BME280;55635;50.264;11.918;2023-04-23T04:23:18;94897.38;;;13.77;75.22
40946;BME280;55635;50.264;11.918;2023-04-23T04:26:04;94907.31;;;13.70;75.69
40946;BME280;55635;50.264;11.918;2023-04-23T04:28:45;94911.88;;;13.62;76.47
40946;BME280;55635;50.264;11.918;2023-04-23T04:31:30;94910.41;;;13.48;77.35
40946;BME280;55635;50.264;11.918;2023-04-23T04:34:12;94906.25;;;13.52;77.57
40946;BME280;55635;50.264;11.918;2023-04-23T04:36:55;94908.25;;;13.39;78.21
40946;BME280;55635;50.264;11.918;2023-04-23T04:39:36;94917.59;;;13.84;76.52
40946;BME280;55635;50.264;11.918;2023-04-23T04:42:17;94915.31;;;13.88;76.49
40946;BME280;55635;50.264;11.918;2023-04-23T04:44:58;94908.25;;;13.57;76.89
40946;BME280;55635;50.264;11.918;2023-04-23T04:47:40;94917.72;;;13.71;76.99
40946;BME280;55635;50.264;11.918;2023-04-23T04:50:21;94916.31;;;13.87;76.54
40946;BME280;55635;50.264;11.918;2023-04-23T04:53:04;94913.59;;;13.75;77.17
40946;BME280;55635;50.264;11.918;2023-04-23T04:55:45;94909.66;;;13.96;76.19
40946;BME280;55635;50.264;11.918;2023-04-23T04:58:26;94910.69;;;13.77;77.05
40946;BME280;55635;50.264;11.918;2023-04-23T05:01:06;94921.41;;;13.88;76.61
40946;BME280;55635;50.264;11.918;2023-04-23T05:03:48;94923.75;;;13.67;77.33
40946;BME280;55635;50.264;11.918;2023-04-23T05:06:30;94920.63;;;13.88;77.11
40946;BME280;55635;50.264;11.918;2023-04-23T05:09:12;94920.91;;;13.61;78.23
40946;BME280;55635;50.264;11.918;2023-04-23T05:11:52;94917.41;;;13.79;78.47
40946;BME280;55635;50.264;11.918;2023-04-23T05:14:33;94918.47;;;13.96;76.60
40946;BME280;55635;50.264;11.918;2023-04-23T05:17:14;94926.69;;;13.95;77.35
40946;BME280;55635;50.264;11.918;2023-04-23T05:19:55;94922.41;;;13.94;78.16
40946;BME280;55635;50.264;11.918;2023-04-23T05:22:40;94924.69;;;13.90;77.42
40946;BME280;55635;50.264;11.918;2023-04-23T05:25:22;94928.97;;;13.73;79.78
40946;BME280;55635;50.264;11.918;2023-04-23T05:28:03;94922.84;;;13.73;79.21
40946;BME280;55635;50.264;11.918;2023-04-23T05:30:45;94910.53;;;14.08;78.02
40946;BME280;55635;50.264;11.918;2023-04-23T05:33:28;94925.78;;;14.01;79.47
40946;BME280;55635;50.264;11.918;2023-04-23T05:36:10;94927.28;;;13.79;80.72
40946;BME280;55635;50.264;11.918;2023-04-23T05:38:51;94920.97;;;13.91;79.47
40946;BME280;55635;50.264;11.918;2023-04-23T05:41:32;94923.44;;;13.93;79.49
40946;BME280;55635;50.264;11.918;2023-04-23T05:44:13;94926.75;;;13.88;80.17
40946;BME280;55635;50.264;11.918;2023-04-23T05:46:56;94926.41;;;14.03;79.64
40946;BME280;55635;50.264;11.918;2023-04-23T05:49:37;94929.97;;;13.79;80.69
40946;BME280;55635;50.264;11.918;2023-04-23T05:52:18;94923.34;;;13.99;79.44
40946;BME280;55635;50.264;11.918;2023-04-23T05:54:59;94924.75;;;13.84;80.16
40946;BME280;55635;50.264;11.918;2023-04-23T05:57:40;94926.78;;;14.06;79.41
40946;BME280;55635;50.264;11.918;2023-04-23T06:00:21;94923.00;;;13.96;79.71
40946;BME280;55635;50.264;11.918;2023-04-23T06:03:02;94927.41;;;14.20;79.42
40946;BME280;55635;50.264;11.918;2023-04-23T06:05:45;94934.75;;;14.25;78.42
40946;BME280;55635;50.264;11.918;2023-04-23T06:08:26;94926.91;;;14.11;79.44
40946;BME280;55635;50.264;11.918;2023-04-23T06:11:07;94938.19;;;14.25;78.92
40946;BME280;55635;50.264;11.918;2023-04-23T06:13:48;94946.47;;;13.87;79.66
40946;BME280;55635;50.264;11.918;2023-04-23T06:16:29;94943.97;;;13.25;84.51
40946;BME280;55635;50.264;11.918;2023-04-23T06:19:10;94956.69;;;13.47;84.38
40946;BME280;55635;50.264;11.918;2023-04-23T06:21:51;94958.38;;;13.67;84.42
40946;BME280;55635;50.264;11.918;2023-04-23T06:24:34;94954.97;;;13.35;84.54
40946;BME280;55635;50.264;11.918;2023-04-23T06:27:21;94949.94;;;13.70;84.53
40946;BME280;55635;50.264;11.918;2023-04-23T06:30:05;94954.97;;;13.96;82.62
40946;BME280;55635;50.264;11.918;2023-04-23T06:32:46;94968.44;;;13.15;87.53
40946;BME280;55635;50.264;11.918;2023-04-23T06:35:28;94966.16;;;13.43;87.23
40946;BME280;55635;50.264;11.918;2023-04-23T06:38:09;94960.53;;;13.02;88.74
40946;BME280;55635;50.264;11.918;2023-04-23T06:40:50;94962.16;;;13.03;89.36
40946;BME280;55635;50.264;11.918;2023-04-23T06:43:31;94962.53;;;13.13;89.52
40946;BME280;55635;50.264;11.918;2023-04-23T06:46:30;94961.81;;;13.24;89.41
40946;BME280;55635;50.264;11.918;2023-04-23T06:49:14;94962.91;;;13.17;88.73
40946;BME280;55635;50.264;11.918;2023-04-23T06:51:55;94968.34;;;13.28;88.76
40946;BME280;55635;50.264;11.918;2023-04-23T06:54:38;94961.38;;;13.27;88.70
40946;BME280;55635;50.264;11.918;2023-04-23T06:57:19;94957.47;;;13.73;88.04
40946;BME280;55635;50.264;11.918;2023-04-23T07:00:01;94956.16;;;14.00;85.50
40946;BME280;55635;50.264;11.918;2023-04-23T07:02:48;94950.00;;;13.63;85.21
40946;BME280;55635;50.264;11.918;2023-04-23T07:05:29;94958.66;;;14.13;83.27
40946;BME280;55635;50.264;11.918;2023-04-23T07:08:10;94960.28;;;14.32;83.26
40946;BME280;55635;50.264;11.918;2023-04-23T07:10:51;94964.03;;;13.70;82.29
40946;BME280;55635;50.264;11.918;2023-04-23T07:13:32;94966.00;;;13.81;83.76
40946;BME280;55635;50.264;11.918;2023-04-23T07:16:14;94951.78;;;14.42;80.41
40946;BME280;55635;50.264;11.918;2023-04-23T07:18:55;94957.06;;;14.60;79.39
40946;BME280;55635;50.264;11.918;2023-04-23T07:21:41;94951.88;;;14.95;77.39
40946;BME280;55635;50.264;11.918;2023-04-23T07:24:25;94969.13;;;14.33;80.34
40946;BME280;55635;50.264;11.918;2023-04-23T07:27:08;94953.63;;;14.71;78.32
40946;BME280;55635;50.264;11.918;2023-04-23T07:29:50;94971.97;;;14.31;79.69
40946;BME280;55635;50.264;11.918;2023-04-23T07:32:32;94975.75;;;13.69;82.10
40946;BME280;55635;50.264;11.918;2023-04-23T07:35:14;94981.94;;;13.88;82.17
40946;BME280;55635;50.264;11.918;2023-04-23T07:37:55;94963.53;;;14.16;80.13
40946;BME280;55635;50.264;11.918;2023-04-23T07:40:37;94980.22;;;13.93;81.19
40946;BME280;55635;50.264;11.918;2023-04-23T07:43:18;94964.97;;;14.18;80.53
40946;BME280;55635;50.264;11.918;2023-04-23T07:46:01;94955.03;;;14.44;78.38
40946;BME280;55635;50.264;11.918;2023-04-23T07:48:43;94963.09;;;14.01;79.83
40946;BME280;55635;50.264;11.918;2023-04-23T07:51:54;94955.94;;;14.38;79.73
40946;BME280;55635;50.264;11.918;2023-04-23T07:54:35;94962.06;;;14.38;78.74
40946;BME280;55635;50.264;11.918;2023-04-23T07:57:16;94962.97;;;14.14;80.69
40946;BME280;55635;50.264;11.918;2023-04-23T07:59:57;94970.38;;;13.76;81.02
40946;BME280;55635;50.264;11.918;2023-04-23T08:02:38;94979.25;;;13.70;82.60
40946;BME280;55635;50.264;11.918;2023-04-23T08:05:20;94972.00;;;13.27;83.77
40946;BME280;55635;50.264;11.918;2023-04-23T08:08:01;94970.06;;;13.66;84.00
40946;BME280;55635;50.264;11.918;2023-04-23T08:10:42;94971.41;;;13.93;82.91
40946;BME280;55635;50.264;11.918;2023-04-23T08:13:23;94974.81;;;13.82;83.48
40946;BME280;55635;50.264;11.918;2023-04-23T08:16:04;94972.34;;;14.16;81.55
40946;BME280;55635;50.264;11.918;2023-04-23T08:18:46;94964.00;;;13.95;80.74
40946;BME280;55635;50.264;11.918;2023-04-23T08:21:51;94967.91;;;14.29;79.72
40946;BME280;55635;50.264;11.918;2023-04-23T08:24:33;94965.75;;;14.19;80.18
40946;BME280;55635;50.264;11.918;2023-04-23T08:27:14;94958.63;;;13.58;83.42
40946;BME280;55635;50.264;11.918;2023-04-23T08:29:56;94975.84;;;13.99;82.37
40946;BME280;55635;50.264;11.918;2023-04-23T08:32:40;94972.66;;;14.27;81.95
40946;BME280;55635;50.264;11.918;2023-04-23T08:35:22;94971.66;;;14.09;80.94
40946;BME280;55635;50.264;11.918;2023-04-23T08:38:03;94972.88;;;14.25;82.05
40946;BME280;55635;50.264;11.918;2023-04-23T08:40:45;94982.59;;;13.58;86.23
40946;BME280;55635;50.264;11.918;2023-04-23T08:43:41;94984.13;;;13.73;87.82
40946;BME280;55635;50.264;11.918;2023-04-23T08:46:24;94996.59;;;13.97;87.53
40946;BME280;55635;50.264;11.918;2023-04-23T08:49:17;95005.16;;;13.99;81.24
40946;BME280;55635;50.264;11.918;2023-04-23T08:52:18;94991.69;;;13.94;80.36
40946;BME280;55635;50.264;11.918;2023-04-23T08:55:04;94997.03;;;13.94;78.88
40946;BME280;55635;50.264;11.918;2023-04-23T08:57:47;94999.72;;;14.12;78.06
40946;BME280;55635;50.264;11.918;2023-04-23T09:00:29;95002.56;;;14.29;77.65
40946;BME280;55635;50.264;11.918;2023-04-23T09:03:12;95008.25;;;14.39;76.63
40946;BME280;55635;50.264;11.918;2023-04-23T09:06:01;94998.56;;;14.56;74.37
40946;BME280;55635;50.264;11.918;2023-04-23T09:08:46;94994.50;;;15.13;75.42
40946;BME280;55635;50.264;11.918;2023-04-23T09:11:27;94996.97;;;15.26;71.11
40946;BME280;55635;50.264;11.918;2023-04-23T09:14:10;95000.09;;;15.53;74.65
40946;BME280;55635;50.264;11.918;2023-04-23T09:16:52;94999.41;;;16.67;71.28
40946;BME280;55635;50.264;11.918;2023-04-23T09:19:34;95001.69;;;16.23;68.09
40946;BME280;55635;50.264;11.918;2023-04-23T09:22:49;94999.06;;;15.65;72.27
40946;BME280;55635;50.264;11.918;2023-04-23T09:25:32;94996.50;;;15.70;69.59
40946;BME280;55635;50.264;11.918;2023-04-23T09:28:13;94977.66;;;15.89;71.64
40946;BME280;55635;50.264;11.918;2023-04-23T09:30:55;94980.53;;;16.73;70.05
40946;BME280;55635;50.264;11.918;2023-04-23T09:33:36;94966.06;;;16.34;70.70
40946;BME280;55635;50.264;11.918;2023-04-23T09:36:22;94968.25;;;16.49;70.90
40946;BME280;55635;50.264;11.918;2023-04-23T09:39:14;94955.53;;;17.58;65.85
40946;BME280;55635;50.264;11.918;2023-04-23T09:42:03;94965.28;;;17.19;69.17
40946;BME280;55635;50.264;11.918;2023-04-23T09:44:44;94950.56;;;17.05;68.76
40946;BME280;55635;50.264;11.918;2023-04-23T09:47:52;94934.97;;;18.45;62.95
40946;BME280;55635;50.264;11.918;2023-04-23T09:50:35;94951.41;;;18.92;58.78
40946;BME280;55635;50.264;11.918;2023-04-23T09:53:19;94939.63;;;17.89;61.48
40946;BME280;55635;50.264;11.918;2023-04-23T09:56:00;94952.53;;;17.92;61.28
40946;BME280;55635;50.264;11.918;2023-04-23T09:58:44;94941.22;;;18.29;60.20
40946;BME280;55635;50.264;11.918;2023-04-23T10:01:29;94950.88;;;18.95;60.21
40946;BME280;55635;50.264;11.918;2023-04-23T10:04:16;94937.94;;;18.43;59.85
40946;BME280;55635;50.264;11.918;2023-04-23T10:07:00;94936.38;;;17.71;62.77
40946;BME280;55635;50.264;11.918;2023-04-23T10:09:43;94945.75;;;19.47;57.33
40946;BME280;55635;50.264;11.918;2023-04-23T10:12:24;94933.56;;;19.71;58.52
40946;BME280;55635;50.264;11.918;2023-04-23T10:15:10;94939.44;;;19.05;58.59
40946;BME280;55635;50.264;11.918;2023-04-23T10:17:53;94940.47;;;18.33;59.72
40946;BME280;55635;50.264;11.918;2023-04-23T10:21:01;94912.25;;;18.74;57.47
40946;BME280;55635;50.264;11.918;2023-04-23T10:23:46;94936.84;;;18.23;57.18
40946;BME280;55635;50.264;11.918;2023-04-23T10:26:31;94928.13;;;17.56;63.93
40946;BME280;55635;50.264;11.918;2023-04-23T10:29:15;94929.38;;;18.46;59.64
40946;BME280;55635;50.264;11.918;2023-04-23T10:32:00;94925.06;;;18.94;56.74
40946;BME280;55635;50.264;11.918;2023-04-23T10:34:42;94935.06;;;18.28;58.11
40946;BME280;55635;50.264;11.918;2023-04-23T10:37:27;94931.28;;;16.74;62.48
40946;BME280;55635;50.264;11.918;2023-04-23T10:40:15;94934.81;;;16.52;61.91
40946;BME280;55635;50.264;11.918;2023-04-23T10:42:59;94932.03;;;16.86;63.56
40946;BME280;55635;50.264;11.918;2023-04-23T10:45:40;94939.06;;;17.54;61.61
40946;BME280;55635;50.264;11.918;2023-04-23T10:48:27;94928.81;;;16.84;61.68
40946;BME280;55635;50.264;11.918;2023-04-23T10:51:08;94931.56;;;16.90;61.78
40946;BME280;55635;50.264;11.918;2023-04-23T10:53:51;94933.47;;;15.98;65.18
40946;BME280;55635;50.264;11.918;2023-04-23T10:56:32;94938.06;;;16.94;63.40
40946;BME280;55635;50.264;11.918;2023-04-23T10:59:22;94924.56;;;16.88;64.80
40946;BME280;55635;50.264;11.918;2023-04-23T11:02:11;94924.50;;;17.83;61.38
40946;BME280;55635;50.264;11.918;2023-04-23T11:04:57;94907.22;;;17.08;61.86
40946;BME280;55635;50.264;11.918;2023-04-23T11:07:39;94913.78;;;16.83;63.58
40946;BME280;55635;50.264;11.918;2023-04-23T11:10:20;94926.50;;;15.97;66.87
40946;BME280;55635;50.264;11.918;2023-04-23T11:13:22;94911.91;;;16.84;66.80
40946;BME280;55635;50.264;11.918;2023-04-23T11:16:17;94922.75;;;17.39;63.50
40946;BME280;55635;50.264;11.918;2023-04-23T11:19:09;94913.91;;;17.38;63.19
40946;BME280;55635;50.264;11.918;2023-04-23T11:21:59;94905.63;;;18.17;59.57
40946;BME280;55635;50.264;11.918;2023-04-23T11:24:45;94899.69;;;17.93;60.80
40946;BME280;55635;50.264;11.918;2023-04-23T11:27:30;94896.22;;;18.36;61.71
40946;BME280;55635;50.264;11.918;2023-04-23T11:30:14;94901.47;;;19.28;55.01
40946;BME280;55635;50.264;11.918;2023-04-23T11:32:57;94890.28;;;18.77;57.79
40946;BME280;55635;50.264;11.918;2023-04-23T11:35:39;94892.47;;;17.93;60.49
40946;BME280;55635;50.264;11.918;2023-04-23T11:38:21;94891.81;;;17.15;60.18
40946;BME280;55635;50.264;11.918;2023-04-23T11:41:02;94896.59;;;17.13;60.00
40946;BME280;55635;50.264;11.918;2023-04-23T11:43:45;94901.16;;;17.12;60.91
40946;BME280;55635;50.264;11.918;2023-04-23T11:46:26;94897.81;;;17.38;61.61
40946;BME280;55635;50.264;11.918;2023-04-23T11:49:08;94891.47;;;17.45;58.15
40946;BME280;55635;50.264;11.918;2023-04-23T11:51:49;94887.25;;;16.99;63.06
40946;BME280;55635;50.264;11.918;2023-04-23T11:54:31;94882.38;;;17.62;62.82
40946;BME280;55635;50.264;11.918;2023-04-23T11:57:13;94888.31;;;17.31;59.32
40946;BME280;55635;50.264;11.918;2023-04-23T12:00:12;94892.13;;;17.68;59.45
40946;BME280;55635;50.264;11.918;2023-04-23T12:03:24;94876.59;;;18.35;58.64
40946;BME280;55635;50.264;11.918;2023-04-23T12:06:06;94878.31;;;18.20;58.95
40946;BME280;55635;50.264;11.918;2023-04-23T12:08:47;94874.16;;;17.69;62.19
40946;BME280;55635;50.264;11.918;2023-04-23T12:11:29;94866.56;;;18.04;58.90
40946;BME280;55635;50.264;11.918;2023-04-23T12:14:12;94866.28;;;17.79;60.69
40946;BME280;55635;50.264;11.918;2023-04-23T12:16:54;94857.69;;;19.32;54.63
40946;BME280;55635;50.264;11.918;2023-04-23T12:19:35;94851.97;;;21.00;54.32
40946;BME280;55635;50.264;11.918;2023-04-23T12:22:26;94844.72;;;21.26;47.26
40946;BME280;55635;50.264;11.918;2023-04-23T12:25:11;94842.53;;;21.53;49.35
40946;BME280;55635;50.264;11.918;2023-04-23T12:27:58;94843.81;;;21.86;50.39
40946;BME280;55635;50.264;11.918;2023-04-23T12:30:42;94833.63;;;21.07;49.05
40946;BME280;55635;50.264;11.918;2023-04-23T12:33:30;94837.84;;;20.42;49.78
40946;BME280;55635;50.264;11.918;2023-04-23T12:36:14;94836.28;;;21.83;44.51
40946;BME280;55635;50.264;11.918;2023-04-23T12:39:31;94834.31;;;20.37;48.49
40946;BME280;55635;50.264;11.918;2023-04-23T12:42:14;94842.88;;;19.30;51.87
40946;BME280;55635;50.264;11.918;2023-04-23T12:45:05;94839.78;;;19.43;54.73
40946;BME280;55635;50.264;11.918;2023-04-23T12:47:47;94831.94;;;19.88;51.62
40946;BME280;55635;50.264;11.918;2023-04-23T12:50:28;94836.44;;;19.36;51.86
40946;BME280;55635;50.264;11.918;2023-04-23T12:53:09;94836.75;;;19.02;53.03
40946;BME280;55635;50.264;11.918;2023-04-23T12:55:52;94835.63;;;19.67;53.78
40946;BME280;55635;50.264;11.918;2023-04-23T12:58:33;94827.06;;;20.37;49.51
40946;BME280;55635;50.264;11.918;2023-04-23T13:01:14;94824.84;;;19.62;50.90
40946;BME280;55635;50.264;11.918;2023-04-23T13:03:55;94834.53;;;19.26;49.19
40946;BME280;55635;50.264;11.918;2023-04-23T13:06:36;94825.50;;;19.84;50.86
40946;BME280;55635;50.264;11.918;2023-04-23T13:09:17;94819.94;;;19.17;53.25
40946;BME280;55635;50.264;11.918;2023-04-23T13:11:58;94794.19;;;18.58;53.27
40946;BME280;55635;50.264;11.918;2023-04-23T13:14:39;94809.66;;;18.24;55.90
40946;BME280;55635;50.264;11.918;2023-04-23T13:17:21;94811.84;;;18.05;56.09
40946;BME280;55635;50.264;11.918;2023-04-23T13:20:05;94803.75;;;18.75;54.18
40946;BME280;55635;50.264;11.918;2023-04-23T13:22:46;94794.69;;;19.60;52.67
40946;BME280;55635;50.264;11.918;2023-04-23T13:25:32;94794.00;;;18.64;50.96
40946;BME280;55635;50.264;11.918;2023-04-23T13:28:13;94797.44;;;19.28;52.27
40946;BME280;55635;50.264;11.918;2023-04-23T13:30:54;94796.03;;;18.52;56.20
40946;BME280;55635;50.264;11.918;2023-04-23T13:33:35;94791.28;;;18.96;53.59
40946;BME280;55635;50.264;11.918;2023-04-23T13:36:16;94778.34;;;19.30;53.21
40946;BME280;55635;50.264;11.918;2023-04-23T13:38:57;94765.00;;;19.40;51.93
40946;BME280;55635;50.264;11.918;2023-04-23T13:41:38;94760.09;;;19.32;51.59
40946;BME280;55635;50.264;11.918;2023-04-23T13:44:19;94771.31;;;19.24;53.96
40946;BME280;55635;50.264;11.918;2023-04-23T13:47:00;94774.09;;;18.97;54.91
40946;BME280;55635;50.264;11.918;2023-04-23T13:49:41;94767.44;;;18.68;57.37
40946;BME280;55635;50.264;11.918;2023-04-23T13:52:22;94757.50;;;18.68;58.55
40946;BME280;55635;50.264;11.918;2023-04-23T13:55:03;94761.16;;;18.57;58.32
40946;BME280;55635;50.264;11.918;2023-04-23T13:57:44;94752.94;;;19.06;57.44
40946;BME280;55635;50.264;11.918;2023-04-23T14:00:27;94749.97;;;19.44;55.96
40946;BME280;55635;50.264;11.918;2023-04-23T14:03:09;94743.41;;;19.82;53.70
40946;BME280;55635;50.264;11.918;2023-04-23T14:05:50;94743.88;;;20.51;54.05
40946;BME280;55635;50.264;11.918;2023-04-23T14:08:31;94738.22;;;20.47;50.96
40946;BME280;55635;50.264;11.918;2023-04-23T14:11:12;94733.56;;;21.49;48.82
40946;BME280;55635;50.264;11.918;2023-04-23T14:13:53;94731.97;;;22.12;48.43
40946;BME280;55635;50.264;11.918;2023-04-23T14:16:34;94730.13;;;22.85;47.85